Tiempo atmosférico en la estación meteorológica de Trujillo, Cáceres (503 m.)



Fecha
DESCASC
Temp. máxima en grados centígrados (hora)
DESCASC
Temp. mínima en grados centígrados (hora)
DESCASC
Temp. media en grados centígrados
DESCASC
Racha de viento máxima en m/sg (hora)
DESCASC
Velocidad máxima media en intervalos de 10 minutos(hora)
DESCASC
Precipitaciones diarias en mm
DESCASC
Precipitaciones de 00:00 a 06:00 en mm
DESCASC
Precipitaciones de 06:00 a 12:00 en mm
DESCASC
Precipitaciones de 12:00 a 18:00 en mm
DESCASC
Precipitaciones de 18:00 a 24:00 en mm
DESCASC
19-09-2019 29.4 (17:20) 17 (07:40) 23.2 5.83 (16:50) 2.78 (14:10) 0 0 0 0 0
18-09-2019 29.6 (17:40) 15.4 (06:20) 22.5 5.83 (17:10) 2.78 (01:20) 0 0 0 0 0
17-09-2019 32 (15:50) 12.5 (00:00) 22.3 20 (21:10) 6.11 (20:10) 36.6 0 0 0 36.6
16-09-2019 29.6 (18:50) 17.6 (00:00) 23.6 7.5 (14:20) 5.56 (14:20) 0 0 0 0 0
15-09-2019 27.6 (19:00) 16 (00:00) 21.8 4.72 (06:00) 2.78 (06:00) 0.1 0.1 0 0 0
14-09-2019 24.2 (14:20) 16.3 (00:00) 20.3 8.33 (15:50) 5.28 (12:40) 0.8 0 0 0.4 0.4
13-09-2019 23.7 (11:00) 18.3 (00:00) 21 13.89 (15:10) 7.5 (16:00) 0 0 0 0 0
12-09-2019 29.1 (17:00) 18.4 (00:00) 23.8 12.22 (10:30) 7.22 (18:20) 0 0 0 0 0
11-09-2019 27.7 (18:20) 13.6 (00:00) 20.7 9.72 (17:20) 4.72 (17:20) 0 0 0 0 0
10-09-2019 24.8 (16:20) 14.1 (05:50) 19.4 11.67 (09:30) 8.06 (09:30) 0 0 0 0 0
09-09-2019 31.2 (15:20) 17.1 (08:00) 24.2 15 (17:10) 8.89 (17:00) 0 0 0 0 0
08-09-2019 31.3 (15:30) 17.6 (00:00) 24.4 8.06 (16:20) 4.72 (17:00) 0 0 0 0 0
07-09-2019 31.8 (18:10) 16.2 (00:00) 24 6.11 (16:30) 3.61 (09:40) 0 0 0 0 0
06-09-2019 30.9 (18:20) 16.4 (00:00) 23.6 7.22 (15:40) 3.61 (10:10) 0 0 0 0 0
05-09-2019 33.3 (17:10) 18.2 (00:00) 25.8 8.89 (13:10) 4.72 (12:10) 0 0 0 0 0
04-09-2019 35.6 (16:30) 20.4 (00:00) 28 12.22 (14:10) 7.22 (16:10) 0 0 0 0 0
03-09-2019 36.2 (17:50) 20.6 (00:00) 28.4 8.89 (16:30) 4.17 (16:30) 0 0 0 0 0
02-09-2019 35.8 (16:40) 19.6 (00:00) 27.7 8.33 (14:30) 3.06 (00:30) 0 0 0 0 0
01-09-2019 36.4 (16:10) 20.7 (00:00) 28.6 8.89 (15:20) 3.89 (15:20) 0 0 0 0 0
31-08-2019 36.4 (17:30) 21 (00:00) 28.7 10.83 (01:30) 6.67 (01:30) 0 0 0 0 0
30-08-2019 35.7 (19:00) 20.4 (00:00) 28.1 7.78 (23:20) 4.17 (23:20) 0 0 0 0 0
29-08-2019 35.5 (16:30) 19.7 (00:00) 27.6 7.22 (15:40) 3.89 (18:10) 0 0 0 0 0
28-08-2019 33.3 (17:50) 18.1 (00:00) 25.7 6.39 (15:00) 2.78 (15:00) 0 0 0 0 0
27-08-2019 30.2 (18:50) 16.5 (00:00) 23.4 5.83 (01:00) 3.06 (04:40) 0 0 0 0 0
26-08-2019 30.5 (16:10) 15 (00:00) 22.8 15.56 (19:10) 8.33 (10:40) 37.3 0 0 0 37.3
25-08-2019 34.3 (18:20) 22.7 (00:00) 28.5 9.17 (21:40) 5.83 (22:00) 0 0 0 0 0
24-08-2019 36.9 (19:20) 21.4 (00:00) 29.2 7.5 (14:20) 3.61 (04:10) 0 0 0 0 0
23-08-2019 36 (18:00) 22.3 (00:00) 29.1 6.11 (04:30) 3.89 (04:30) 0 0 0 0 0
22-08-2019 35.1 (19:10) 20 (00:00) 27.5 6.67 (14:40) 3.33 (12:20) 0 0 0 0 0
21-08-2019 34.1 (16:30) 19.9 (00:00) 27 7.22 (18:20) 3.89 (18:20) 0 0 0 0 0

Gráficas

Temp. máximas Temp. mínimas Temp. medias Precipitaciones Rachas de viento máximas Velocidades máximas media en intervalos de 10 minutos

Datos horarios

Fecha y hora oficial Temperatura (ºC) Velocidad del viento (km/h) Dirección del viento Racha (km/h) Dirección de racha Precipitación (mm) Presión (hPa) Tendencia (hPa) Humedad (%)
2019-09-19 23:00:00 22.1 0 Calma 9 Nordeste 0 -- -- 40
2019-09-19 22:00:00 23 3 Este 5 Este 0 -- -- 34
2019-09-19 21:00:00 24.4 0 Calma 9 Sudeste 0 -- -- 29
2019-09-19 20:00:00 26.9 5 Sur 19 Sudeste 0 -- -- 27
2019-09-19 19:00:00 28.6 5 Sudeste 18 Sudeste 0 -- -- 28
2019-09-19 18:00:00 29.1 6 Sur 20 Sudeste 0 -- -- 29
2019-09-19 17:00:00 28.9 9 Sudeste 21 Sudeste 0 -- -- 30
2019-09-19 16:00:00 29.3 5 Sudoeste 19 Sudoeste 0 -- -- 32
2019-09-19 15:00:00 28.2 5 Sudoeste 20 Sudoeste 0 -- -- 35
2019-09-19 14:00:00 27.3 6 Sudoeste 18 Sudoeste 0 -- -- 38
2019-09-19 13:00:00 25.7 5 Sudoeste 15 Sudoeste 0 -- -- 43
2019-09-19 12:00:00 24.6 0 Calma 8 Sudoeste 0 -- -- 47
2019-09-19 11:00:00 22.8 3 Sudoeste 7 Sudoeste 0 -- -- 54
2019-09-19 10:00:00 19.6 3 Sur 9 Sur 0 -- -- 60
2019-09-19 09:00:00 17.7 5 Sudeste 9 Sudeste 0 -- -- 66
2019-09-19 08:00:00 17.1 4 Sur 7 Sur 0 -- -- 66
2019-09-19 07:00:00 17.3 3 Sur 6 Sur 0 -- -- 63
2019-09-19 06:00:00 18 3 Sur 6 Sur 0 -- -- 54
2019-09-19 05:00:00 18.6 4 Sudeste 7 Sudeste 0 -- -- 50
2019-09-19 04:00:00 19 3 Sudeste 9 Sur 0 -- -- 48
2019-09-19 03:00:00 19.8 5 Sudeste 9 Sur 0 -- -- 43
2019-09-19 02:00:00 20.2 4 Sudoeste 11 Sudoeste 0 -- -- 43
2019-09-19 01:00:00 20.4 3 Sur 8 Sur 0 -- -- 44
2019-09-19 00:00:00 20.6 3 Este 4 Sudeste 0 -- -- 43
2019-09-18 23:00:00 21 4 Sudeste 6 Sudoeste 0 -- -- 42
2019-09-18 22:00:00 22.8 3 Este 6 Este 0 -- -- 36
2019-09-18 21:00:00 24 3 Sudeste 4 Sudeste 0 -- -- 33
2019-09-18 20:00:00 27.3 0 Calma 6 Nordeste 0 -- -- 24
2019-09-18 19:00:00 29.4 2 Sudoeste 15 Sudoeste 0 -- -- 24
2019-09-18 18:00:00 29 7 Sudoeste 21 Sudeste 0 -- -- 26
2019-09-18 17:00:00 29.5 5 Sudoeste 18 Sudoeste 0 -- -- 30
2019-09-18 16:00:00 27.4 4 Sur 17 Sur 0 -- -- 35
2019-09-18 15:00:00 27.5 6 Sur 15 Sur 0 -- -- 36
2019-09-18 14:00:00 27.2 4 Sudoeste 14 Sur 0 -- -- 37
2019-09-18 13:00:00 26 4 Sudoeste 13 Sur 0 -- -- 39
2019-09-18 12:00:00 25 4 Sur 13 Sudeste 0 -- -- 43
2019-09-18 11:00:00 23.2 5 Sudeste 9 Sudeste 0 -- -- 46
2019-09-18 10:00:00 20.4 0 Calma 5 Nordeste 0 -- -- 65
2019-09-18 09:00:00 17.8 0 Calma 5 Sudeste 0 -- -- 72
2019-09-18 08:00:00 16.2 0 Calma 7 Nordeste 0 -- -- 77
2019-09-18 07:00:00 16.2 5 Este 7 Este 0 -- -- 78
2019-09-18 06:00:00 15.7 0 Calma 8 Norte 0 -- -- 78
2019-09-18 05:00:00 16.1 3 Norte 8 Oeste 0 -- -- 78
2019-09-18 04:00:00 16.6 4 Oeste 10 Noroeste 0 -- -- 72
2019-09-18 03:00:00 18 2 Sur 8 Sudeste 0 -- -- 66
2019-09-18 02:00:00 17.5 4 Este 14 Nordeste 0 -- -- 68
2019-09-18 01:00:00 17 5 Nordeste 12 Norte 0 -- -- 71
2019-09-18 00:00:00 18.1 4 Norte 32 Este 0 -- -- 61
2019-09-17 23:00:00 17.8 20 Este 42 Nordeste 3.3 -- -- 74
2019-09-17 22:00:00 15.6 17 Norte 72 Este 17.5 -- -- 86
2019-09-17 21:00:00 17.3 21 Noroeste 47 Norte 15.8 -- -- 79
2019-09-15 18:00:00 26.2 9 Este 16 Noroeste 0 -- -- 36
2019-09-15 17:00:00 26.8 5 Nordeste 14 Noroeste 0 -- -- 36
2019-09-15 16:00:00 26 7 Oeste 14 Oeste 0 -- -- 37
2019-09-15 15:00:00 25.3 5 Oeste 10 Sur 0 -- -- 39
2019-09-15 14:00:00 24.1 4 Nordeste 13 Sudeste 0 -- -- 44
2019-09-15 13:00:00 24.3 3 Sudeste 14 Oeste 0 -- -- 45
2019-09-15 12:00:00 23.2 4 Sudoeste 13 Sudoeste 0 -- -- 54
2019-09-15 11:00:00 21.6 4 Este 9 Este 0 -- -- 61
2019-09-15 10:00:00 19.3 5 Nordeste 10 Nordeste 0 -- -- 78
2019-09-15 09:00:00 16.6 5 Norte 10 Norte 0 -- -- 87
2019-09-15 08:00:00 16.2 0 Calma 7 Norte 0 -- -- 87
2019-09-15 07:00:00 16.6 5 Noroeste 14 Este 0 -- -- 86
2019-09-15 06:00:00 16.9 10 Nordeste 17 Nordeste 0 -- -- 86
2019-09-15 05:00:00 17.4 6 Norte 17 Noroeste 0 -- -- 83
2019-09-15 04:00:00 17.6 6 Nordeste 12 Norte 0.1 -- -- 82
2019-09-15 03:00:00 17.4 3 Nordeste 10 Nordeste 0 -- -- 78
2019-09-15 02:00:00 17.3 5 Norte 13 Norte 0 -- -- 77
2019-09-15 01:00:00 18.1 5 Norte 10 Norte 0 -- -- 75
2019-09-15 00:00:00 18 4 Nordeste 13 Nordeste 0 -- -- 75
2019-09-14 23:00:00 18.8 5 Nordeste 11 Norte 0 -- -- 73
2019-09-14 22:00:00 19.1 4 Nordeste 11 Este 0 -- -- 72
2019-09-14 21:00:00 19.6 0 Calma 7 Este 0 -- -- 73
2019-09-14 20:00:00 19.7 4 Norte 17 Nordeste 0 -- -- 73
2019-09-14 19:00:00 19.7 2 Nordeste 21 Este 0.4 -- -- 77
2019-09-14 18:00:00 20.8 0 Calma 27 Este 0.4 -- -- 66
2019-09-14 17:00:00 23.7 10 Norte 29 Nordeste 0 -- -- 44
2019-09-14 16:00:00 23.1 14 Nordeste 30 Nordeste 0 -- -- 46
2019-09-14 15:00:00 23.7 9 Norte 26 Nordeste 0 -- -- 44
2019-09-14 14:00:00 23.7 7 Norte 22 Este 0 -- -- 43
2019-09-14 13:00:00 22.6 14 Este 27 Este 0 -- -- 48
2019-09-14 12:00:00 22.1 11 Este 22 Este 0 -- -- 49
2019-09-14 11:00:00 21.1 9 Nordeste 18 Norte 0 -- -- 54
2019-09-14 10:00:00 19.3 4 Norte 14 Este 0 -- -- 62
2019-09-14 09:00:00 17.5 3 Nordeste 17 Nordeste 0 -- -- 71
2019-09-14 08:00:00 16.8 4 Nordeste 20 Nordeste 0 -- -- 78
2019-09-14 07:00:00 17 9 Nordeste 19 Nordeste 0 -- -- 82
2019-09-14 06:00:00 16.6 3 Nordeste 12 Norte 0 -- -- 78
2019-09-14 05:00:00 16.9 6 Nordeste 17 Nordeste 0 -- -- 78
2019-09-14 04:00:00 16.9 7 Norte 20 Norte 0 -- -- 78
2019-09-14 03:00:00 17.2 8 Norte 19 Norte 0 -- -- 77
2019-09-14 02:00:00 17.3 6 Nordeste 14 Nordeste 0 -- -- 74
2019-09-14 01:00:00 17.9 7 Nordeste 20 Norte 0 -- -- 70
2019-09-14 00:00:00 18.7 6 Nordeste 15 Nordeste 0 -- -- 62
2019-09-13 23:00:00 19 6 Nordeste 19 Norte 0 -- -- 61
2019-09-13 22:00:00 19.4 5 Norte 24 Nordeste 0 -- -- 59
2019-09-13 21:00:00 19.7 12 Norte 27 Nordeste 0 -- -- 56
2019-09-13 20:00:00 20.9 15 Nordeste 33 Nordeste 0 -- -- 51
2019-09-13 19:00:00 22.4 21 Nordeste 38 Nordeste 0 -- -- 51
2019-09-13 18:00:00 22.7 18 Nordeste 40 Nordeste 0 -- -- 52
2019-09-13 17:00:00 20.2 22 Nordeste 47 Nordeste 0 -- -- 55
2019-09-13 16:00:00 20.6 27 Nordeste 50 Nordeste 0 -- -- 47
2019-09-13 15:00:00 22.7 18 Nordeste 41 Este 0 -- -- 44
2019-09-13 14:00:00 21.1 15 Este 26 Sudeste 0 -- -- 47
2019-09-13 13:00:00 22.8 11 Este 34 Sudeste 0 -- -- 41
2019-09-13 12:00:00 22.9 18 Este 35 Este 0 -- -- 40
2019-09-13 11:00:00 23.3 15 Nordeste 32 Nordeste 0 -- -- 40
2019-09-13 10:00:00 23.1 14 Nordeste 25 Nordeste 0 -- -- 40
2019-09-13 09:00:00 20.1 0 Calma 6 Norte 0 -- -- 43
2019-09-13 08:00:00 18.5 2 Noroeste 8 Nordeste 0 -- -- 46
2019-09-13 07:00:00 18.9 2 Norte 10 Este 0 -- -- 46
2019-09-13 06:00:00 18.9 3 Nordeste 14 Nordeste 0 -- -- 45
2019-09-13 05:00:00 19.3 5 Nordeste 14 Este 0 -- -- 44
2019-09-13 04:00:00 20.4 7 Nordeste 22 Nordeste 0 -- -- 44
2019-09-13 03:00:00 22.4 12 Este 33 Este 0 -- -- 43
2019-09-13 02:00:00 22.9 14 Este 29 Nordeste 0 -- -- 44
2019-09-13 01:00:00 22.7 8 Nordeste 24 Este 0 -- -- 48
2019-09-13 00:00:00 21.5 5 Este 12 Este 0 -- -- 48
2019-09-12 23:00:00 22 5 Este 17 Este 0 -- -- 47
2019-09-12 22:00:00 22.2 6 Este 13 Nordeste 0 -- -- 47
2019-09-12 21:00:00 23.2 5 Nordeste 13 Este 0 -- -- 44
2019-09-12 20:00:00 24.5 9 Este 27 Este 0 -- -- 42
2019-09-12 19:00:00 25.3 20 Este 40 Este 0 -- -- 40
2019-09-12 18:00:00 27.2 16 Este 32 Nordeste 0 -- -- 36
2019-09-12 17:00:00 28.9 17 Nordeste 38 Nordeste 0 -- -- 35
2019-09-12 16:00:00 27.7 15 Nordeste 39 Norte 0 -- -- 35
2019-09-12 15:00:00 28.5 15 Nordeste 35 Norte 0 -- -- 36
2019-09-12 14:00:00 27.5 16 Nordeste 32 Nordeste 0 -- -- 37
2019-09-12 13:00:00 26.3 15 Nordeste 37 Nordeste 0 -- -- 38
2019-09-12 12:00:00 25.3 16 Nordeste 38 Nordeste 0 -- -- 39
2019-09-12 11:00:00 24.3 14 Nordeste 44 Nordeste 0 -- -- 41
2019-09-12 10:00:00 22.6 18 Nordeste 34 Norte 0 -- -- 43
2019-09-12 09:00:00 20.4 17 Nordeste 34 Nordeste 0 -- -- 45
2019-09-12 08:00:00 18.9 11 Nordeste 28 Norte 0 -- -- 46
2019-09-12 07:00:00 18.8 15 Nordeste 33 Nordeste 0 -- -- 44
2019-09-12 06:00:00 18.6 7 Norte 17 Nordeste 0 -- -- 44
2019-09-12 05:00:00 20.2 7 Nordeste 23 Nordeste 0 -- -- 42
2019-09-12 04:00:00 19.2 8 Nordeste 16 Nordeste 0 -- -- 43
2019-09-12 03:00:00 19.1 2 Sudeste 15 Sur 0 -- -- 42
2019-09-12 02:00:00 19.6 5 Nordeste 15 Este 0 -- -- 39
2019-09-12 01:00:00 20.2 9 Este 15 Este 0 -- -- 39
2019-09-12 00:00:00 21.1 5 Este 11 Nordeste 0 -- -- 36
2019-09-11 23:00:00 23.2 5 Nordeste 20 Nordeste 0 -- -- 34
2019-09-11 22:00:00 24.7 9 Nordeste 24 Este 0 -- -- 33
2019-09-11 21:00:00 24.9 10 Nordeste 21 Nordeste 0 -- -- 32
2019-09-11 20:00:00 26.4 8 Norte 28 Norte 0 -- -- 30
2019-09-11 19:00:00 27.5 11 Norte 30 Norte 0 -- -- 30
2019-09-11 18:00:00 27.3 10 Norte 35 Norte 0 -- -- 30
2019-09-11 17:00:00 27.1 11 Norte 28 Noroeste 0 -- -- 30
2019-09-11 16:00:00 26.7 13 Norte 32 Norte 0 -- -- 31
2019-09-11 15:00:00 25.5 12 Norte 32 Norte 0 -- -- 33
2019-09-11 14:00:00 24.7 10 Nordeste 28 Nordeste 0 -- -- 34
2019-09-11 13:00:00 23.3 11 Norte 26 Norte 0 -- -- 36
2019-09-11 12:00:00 21.4 4 Nordeste 16 Noroeste 0 -- -- 39
2019-09-11 11:00:00 19.9 6 Norte 17 Norte 0 -- -- 42
2019-09-11 10:00:00 18.8 4 Norte 13 Nordeste 0 -- -- 46
2019-09-11 09:00:00 16.1 0 Calma 12 Nordeste 0 -- -- 49
2019-09-11 08:00:00 13.8 0 Calma 13 Nordeste 0 -- -- 50
2019-09-11 07:00:00 14 4 Nordeste 18 Norte 0 -- -- 50
2019-09-11 06:00:00 15.2 6 Nordeste 13 Noroeste 0 -- -- 48
2019-09-11 05:00:00 15.2 5 Noroeste 20 Norte 0 -- -- 47
2019-09-11 04:00:00 16.3 7 Nordeste 19 Nordeste 0 -- -- 45
2019-09-11 03:00:00 15.5 0 Calma 13 Norte 0 -- -- 43
2019-09-11 02:00:00 16.6 0 Calma 15 Norte 0 -- -- 40
2019-09-11 01:00:00 17.6 4 Noroeste 23 Noroeste 0 -- -- 36
2019-09-11 00:00:00 18.5 9 Noroeste 16 Noroeste 0 -- -- 33
2019-09-10 23:00:00 18.6 6 Noroeste 15 Noroeste 0 -- -- 32
2019-09-10 22:00:00 19.6 8 Noroeste 24 Noroeste 0 -- -- 31
2019-09-10 21:00:00 21.1 10 Norte 29 Noroeste 0 -- -- 29
2019-09-10 20:00:00 22.8 20 Noroeste 36 Oeste 0 -- -- 28
2019-09-10 19:00:00 24.1 19 Noroeste 36 Noroeste 0 -- -- 26
2019-09-10 18:00:00 24.1 18 Noroeste 37 Oeste 0 -- -- 26
2019-09-10 17:00:00 24.3 24 Noroeste 40 Noroeste 0 -- -- 26
2019-09-10 16:00:00 24.1 16 Noroeste 30 Noroeste 0 -- -- 26
2019-09-10 15:00:00 23.8 12 Noroeste 29 Norte 0 -- -- 30
2019-09-10 14:00:00 23.2 8 Norte 22 Nordeste 0 -- -- 34
2019-09-10 13:00:00 22.8 6 Nordeste 21 Noroeste 0 -- -- 37
2019-09-10 12:00:00 20.7 9 Noroeste 36 Noroeste 0 -- -- 39
2019-09-10 11:00:00 19 18 Oeste 39 Oeste 0 -- -- 48
2019-09-10 10:00:00 16.9 23 Oeste 42 Oeste 0 -- -- 58
2019-09-10 09:00:00 15.2 25 Oeste 41 Oeste 0 -- -- 68
2019-09-10 08:00:00 14.8 15 Oeste 30 Oeste 0 -- -- 70
2019-09-10 07:00:00 14.6 17 Sudoeste 30 Oeste 0 -- -- 67
2019-09-10 06:00:00 14.2 17 Sudoeste 25 Sudoeste 0 -- -- 63
2019-09-10 05:00:00 14.6 19 Sudoeste 28 Sudoeste 0 -- -- 57
2019-09-10 04:00:00 15.2 13 Sudoeste 25 Sudoeste 0 -- -- 51
2019-09-10 03:00:00 16.1 13 Sudoeste 23 Sudoeste 0 -- -- 48
2019-09-10 02:00:00 16.9 15 Sudoeste 27 Sudoeste 0 -- -- 45
2019-09-10 01:00:00 18.1 18 Sudoeste 31 Sudoeste 0 -- -- 43
2019-09-10 00:00:00 19.6 21 Sudoeste 32 Sudoeste 0 -- -- 40
2019-09-09 23:00:00 20.5 14 Sudoeste 24 Sudoeste 0 -- -- 36
2019-09-09 22:00:00 22.6 16 Sudoeste 35 Sudoeste 0 -- -- 34
2019-09-09 21:00:00 24.1 18 Sudoeste 36 Sudoeste 0 -- -- 29
2019-09-09 20:00:00 25.4 23 Sudoeste 44 Sudoeste 0 -- -- 24
2019-09-09 19:00:00 27 27 Oeste 45 Oeste 0 -- -- 24
2019-09-09 18:00:00 28.4 27 Oeste 54 Oeste 0 -- -- 23
2019-09-09 17:00:00 30 32 Oeste 50 Oeste 0 -- -- 23
2019-09-09 16:00:00 30.7 25 Oeste 47 Oeste 0 -- -- 23
2019-09-09 15:00:00 30 28 Oeste 45 Oeste 0 -- -- 25
2019-09-09 14:00:00 29.3 25 Oeste 42 Sudoeste 0 -- -- 26
2019-09-09 13:00:00 27.8 21 Sudoeste 37 Sudoeste 0 -- -- 27
2019-09-09 12:00:00 27.2 17 Sudoeste 30 Sudoeste 0 -- -- 30
2019-09-09 11:00:00 25 10 Sudoeste 17 Oeste 0 -- -- 32
2019-09-09 10:00:00 23.4 5 Sudoeste 13 Sudoeste 0 -- -- 36
2019-09-09 09:00:00 20.2 4 Sur 11 Sudoeste 0 -- -- 40
2019-09-09 08:00:00 17.2 6 Sudeste 11 Sudeste 0 -- -- 42
2019-09-09 07:00:00 17.4 5 Sudeste 9 Sudeste 0 -- -- 41
2019-09-09 06:00:00 18 2 Sudeste 9 Sudeste 0 -- -- 39
2019-09-09 05:00:00 19 6 Sudeste 11 Sur 0 -- -- 36
2019-09-09 04:00:00 19.2 5 Sur 9 Sudeste 0 -- -- 35
2019-09-09 03:00:00 20.4 3 Sur 9 Sudeste 0 -- -- 35
2019-09-09 02:00:00 21.3 6 Sudeste 15 Sur 0 -- -- 34
2019-09-09 01:00:00 20.9 12 Sudoeste 36 Oeste 0 -- -- 35
2019-09-09 00:00:00 22.4 3 Sudeste 5 Sudeste 0 -- -- 34
2019-09-08 23:00:00 23.4 2 Sur 3 Sur 0 -- -- 31
2019-09-08 22:00:00 24.5 0 Calma 9 Oeste 0 -- -- 29
2019-09-08 21:00:00 26.8 6 Oeste 20 Oeste 0 -- -- 26
2019-09-08 20:00:00 29.2 15 Oeste 22 Oeste 0 -- -- 26
2019-09-08 19:00:00 31.2 7 Sudoeste 19 Noroeste 0 -- -- 27
2019-09-08 18:00:00 30.9 7 Oeste 24 Oeste 0 -- -- 27
2019-09-08 17:00:00 30.7 17 Oeste 29 Oeste 0 -- -- 27
2019-09-08 16:00:00 30.9 11 Oeste 27 Oeste 0 -- -- 28
2019-09-08 15:00:00 30.6 5 Oeste 24 Oeste 0 -- -- 30
2019-09-08 14:00:00 28.9 6 Oeste 17 Sudoeste 0 -- -- 35
2019-09-08 13:00:00 26.9 4 Noroeste 13 Noroeste 0 -- -- 38
2019-09-08 12:00:00 25.5 4 Oeste 10 Oeste 0 -- -- 41
2019-09-08 11:00:00 23.9 3 Oeste 8 Oeste 0 -- -- 42
2019-09-08 10:00:00 22.4 0 Calma 9 Noroeste 0 -- -- 41
2019-09-08 09:00:00 18.9 2 Oeste 7 Noroeste 0 -- -- 44
2019-09-08 08:00:00 18.2 4 Noroeste 15 Oeste 0 -- -- 44
2019-09-08 07:00:00 18.4 0 Calma 14 Nordeste 0 -- -- 43
2019-09-08 06:00:00 18.8 6 Nordeste 14 Norte 0 -- -- 45
2019-09-08 05:00:00 18.7 0 Calma 6 Este 0 -- -- 44
2019-09-08 04:00:00 20.6 3 Norte 10 Norte 0 -- -- 40
2019-09-08 03:00:00 19.8 2 Norte 4 Norte 0 -- -- 42
2019-09-08 02:00:00 20.4 0 Calma 5 Nordeste 0 -- -- 40
2019-09-08 01:00:00 22.6 3 Norte 9 Noroeste 0 -- -- 37
2019-09-08 00:00:00 22.8 0 Calma 6 Nordeste 0 -- -- 36
2019-09-07 23:00:00 23.6 5 Nordeste 8 Norte 0 -- -- 34
2019-09-07 22:00:00 25.6 4 Norte 12 Norte 0 -- -- 31
2019-09-07 21:00:00 27.6 5 Norte 15 Noroeste 0 -- -- 30
2019-09-07 20:00:00 30.3 5 Noroeste 15 Noroeste 0 -- -- 26
2019-09-07 19:00:00 31.2 6 Noroeste 16 Norte 0 -- -- 26
2019-09-07 18:00:00 31.4 6 Noroeste 17 Noroeste 0 -- -- 26
2019-09-07 17:00:00 31.4 0 Calma 22 Oeste 0 -- -- 27
2019-09-07 16:00:00 30.3 5 Sur 17 Este 0 -- -- 29
2019-09-07 15:00:00 30.2 6 Este 21 Este 0 -- -- 30
2019-09-07 14:00:00 29 2 Nordeste 17 Norte 0 -- -- 32
2019-09-07 13:00:00 27.4 3 Norte 17 Norte 0 -- -- 32
2019-09-07 12:00:00 26 5 Nordeste 19 Norte 0 -- -- 33
2019-09-07 11:00:00 23.6 10 Nordeste 21 Nordeste 0 -- -- 34
2019-09-07 10:00:00 20.4 6 Nordeste 19 Nordeste 0 -- -- 37
2019-09-07 09:00:00 17.5 9 Nordeste 18 Nordeste 0 -- -- 39
2019-09-07 08:00:00 16.3 4 Nordeste 14 Norte 0 -- -- 38
2019-09-07 07:00:00 17 4 Norte 15 Nordeste 0 -- -- 38
2019-09-07 06:00:00 17.1 7 Nordeste 13 Nordeste 0 -- -- 38
2019-09-07 05:00:00 17.1 0 Calma 4 Noroeste 0 -- -- 42
2019-09-07 04:00:00 17.9 0 Calma 5 Nordeste 0 -- -- 40
2019-09-07 03:00:00 18.5 0 Calma 7 Sudeste 0 -- -- 39
2019-09-07 02:00:00 19 2 Sur 8 Nordeste 0 -- -- 38
2019-09-07 01:00:00 19.9 2 Norte 7 Norte 0 -- -- 36
2019-09-07 00:00:00 21 4 Norte 8 Norte 0 -- -- 34
2019-09-06 23:00:00 21.9 2 Norte 10 Norte 0 -- -- 33
2019-09-06 22:00:00 24.2 4 Norte -- -- -- -- -- 30
2019-09-06 21:00:00 26.4 7 Norte 16 Norte 0 -- -- 28
2019-09-06 20:00:00 29.1 6 Norte 18 Noroeste 0 -- -- 27
2019-09-06 19:00:00 30.5 4 Norte 17 Norte 0 -- -- 26
2019-09-06 18:00:00 30.7 7 Noroeste 19 Noroeste 0 -- -- 27
2019-09-06 17:00:00 30.2 6 Noroeste 21 Noroeste 0 -- -- 27
2019-09-06 16:00:00 29.3 10 Norte 26 Noroeste 0 -- -- 27
2019-09-06 15:00:00 28.5 8 Norte 25 Noroeste 0 -- -- 28
2019-09-06 14:00:00 28.2 7 Norte 18 Nordeste 0 -- -- 28
2019-09-06 13:00:00 26.8 6 Norte 19 Norte 0 -- -- 29
2019-09-06 12:00:00 25.2 7 Norte 25 Norte 0 -- -- 30
2019-09-06 11:00:00 23.5 11 Nordeste 24 Norte 0 -- -- 32
2019-09-06 10:00:00 20.9 12 Nordeste 25 Nordeste 0 -- -- 35
2019-09-06 09:00:00 18.1 7 Nordeste 17 Nordeste 0 -- -- 40
2019-09-06 08:00:00 16.6 6 Nordeste 15 Nordeste 0 -- -- 41
2019-09-06 07:00:00 16.9 8 Nordeste 15 Nordeste 0 -- -- 40
2019-09-06 06:00:00 17.9 5 Nordeste 14 Norte 0 -- -- 38
2019-09-06 05:00:00 19.1 5 Norte 11 Norte 0 -- -- 36
2019-09-06 04:00:00 20.3 5 Norte 12 Norte 0 -- -- 34
2019-09-06 03:00:00 20.6 0 Calma 18 Nordeste 0 -- -- 34
2019-09-06 02:00:00 21.6 10 Nordeste 15 Nordeste 0 -- -- 33
2019-09-06 01:00:00 22.9 5 Nordeste 13 Nordeste 0 -- -- 33
2019-09-06 00:00:00 23 5 Nordeste 13 Nordeste 0 -- -- 34
2019-09-05 23:00:00 23.6 6 Nordeste 13 Nordeste 0 -- -- 33
2019-09-05 22:00:00 25.5 3 Nordeste 9 Nordeste 0 -- -- 32
2019-09-05 21:00:00 28.1 4 Norte 19 Nordeste 0 -- -- 29
2019-09-05 20:00:00 31.1 11 Norte 23 Norte 0 -- -- 26
2019-09-05 19:00:00 32.6 9 Norte 24 Norte 0 -- -- 25
2019-09-05 18:00:00 32.8 9 Nordeste 24 Norte 0 -- -- 25
2019-09-05 17:00:00 33.2 10 Noroeste 23 Noroeste 0 -- -- 26
2019-09-05 16:00:00 32.7 9 Norte 29 Noroeste 0 -- -- 27
2019-09-05 15:00:00 31.9 10 Norte 30 Norte 0 -- -- 29
2019-09-05 14:00:00 31.7 10 Norte 32 Norte 0 -- -- 30
2019-09-05 13:00:00 30 15 Norte 31 Norte 0 -- -- 33
2019-09-05 12:00:00 28.8 16 Nordeste 31 Norte 0 -- -- 36
2019-09-05 11:00:00 27.3 11 Nordeste 29 Norte 0 -- -- 40
2019-09-05 10:00:00 24.2 16 Nordeste 31 Norte 0 -- -- 40
2019-09-05 09:00:00 21.2 8 Nordeste 13 Nordeste 0 -- -- 43
2019-09-05 08:00:00 18.5 0 Calma 4 Sudeste 0 -- -- 44
2019-09-05 07:00:00 19.2 2 Sudeste 4 Sudeste 0 -- -- 42
2019-09-05 06:00:00 19.8 0 Calma 5 Sudeste 0 -- -- 39
2019-09-05 05:00:00 20.1 2 Sudeste 7 Nordeste 0 -- -- 38
2019-09-05 04:00:00 22.3 2 Norte 5 Norte 0 -- -- 35
2019-09-05 03:00:00 22.8 0 Calma 3 Oeste 0 -- -- 32
2019-09-05 02:00:00 24.9 0 Calma 12 Oeste 0 -- -- 27
2019-09-05 01:00:00 25.4 3 Sur 12 Oeste 0 -- -- 26
2019-09-05 00:00:00 27.3 7 Oeste 18 Oeste 0 -- -- 25
2019-09-04 23:00:00 27.6 9 Oeste 15 Oeste 0 -- -- 24
2019-09-04 22:00:00 29 7 Oeste 12 Noroeste 0 -- -- 24
2019-09-04 21:00:00 31.1 7 Oeste 23 Oeste 0 -- -- 22
2019-09-04 20:00:00 33.3 18 Oeste 38 Sudoeste 0 -- -- 21
2019-09-04 19:00:00 35 18 Oeste 37 Oeste 0 -- -- 21
2019-09-04 18:00:00 34.9 13 Noroeste 41 Oeste 0 -- -- 21
2019-09-04 17:00:00 34.8 19 Oeste 40 Oeste 0 -- -- 21
2019-09-04 16:00:00 34.8 22 Oeste 44 Oeste 0 -- -- 21
2019-09-04 15:00:00 34.3 21 Oeste 44 Oeste 0 -- -- 22
2019-09-04 14:00:00 33.6 13 Noroeste 31 Noroeste 0 -- -- 23
2019-09-04 13:00:00 32.8 12 Noroeste 25 Norte 0 -- -- 24
2019-09-04 12:00:00 31 5 Noroeste 12 Oeste 0 -- -- 30
2019-09-04 11:00:00 28.6 0 Calma 8 Noroeste 0 -- -- 33
2019-09-04 10:00:00 25.5 3 Noroeste 5 Noroeste 0 -- -- 37
2019-09-04 09:00:00 23.1 0 Calma 6 Sur 0 -- -- 41
2019-09-04 08:00:00 20.6 2 Sudoeste 5 Sudoeste 0 -- -- 44
2019-09-04 07:00:00 20.5 3 Sur 6 Sur 0 -- -- 44
2019-09-04 06:00:00 21.4 0 Calma 2 Sudoeste 0 -- -- 40
2019-09-04 05:00:00 22.9 0 Calma 5 Sur 0 -- -- 37
2019-09-04 04:00:00 23.7 4 Sur 8 Sur 0 -- -- 36
2019-09-04 03:00:00 24.1 4 Sur 10 Sur 0 -- -- 36
2019-09-04 02:00:00 24 0 Calma 4 Sudeste 0 -- -- 36
2019-09-04 01:00:00 25.3 0 Calma 5 Nordeste 0 -- -- 33
2019-09-04 00:00:00 25.8 2 Este 5 Este 0 -- -- 30
2019-09-03 23:00:00 27.5 0 Calma 6 Noroeste 0 -- -- 28
2019-09-03 22:00:00 29.7 4 Noroeste 13 Noroeste 0 -- -- 24
2019-09-03 21:00:00 31.4 7 Noroeste 18 Noroeste 0 -- -- 24
2019-09-03 20:00:00 33.9 9 Noroeste 18 Oeste 0 -- -- 25
2019-09-03 19:00:00 35.9 4 Oeste 22 Sudoeste 0 -- -- 23
2019-09-03 18:00:00 35.8 6 Oeste 22 Oeste 0 -- -- 24
2019-09-03 17:00:00 34.6 12 Oeste 32 Oeste 0 -- -- 26
2019-09-03 16:00:00 35.3 8 Sudoeste 26 Oeste 0 -- -- 26
2019-09-03 15:00:00 34.1 5 Oeste 22 Sudoeste 0 -- -- 29
2019-09-03 14:00:00 32.8 5 Sur 14 Sudeste 0 -- -- 30
2019-09-03 13:00:00 31.9 5 Sudeste 16 Sudeste 0 -- -- 33
2019-09-03 12:00:00 29.7 7 Sur 16 Sudeste 0 -- -- 36
2019-09-03 11:00:00 27.9 9 Sudeste 20 Sudeste 0 -- -- 39
2019-09-03 10:00:00 25.3 11 Sudeste 17 Sudeste 0 -- -- 44
2019-09-03 09:00:00 23.8 4 Sur 13 Sudeste 0 -- -- 47
2019-09-03 08:00:00 20.6 0 Calma 4 Sur 0 -- -- 54
2019-09-03 07:00:00 21.5 0 Calma 4 Nordeste 0 -- -- 51
2019-09-03 06:00:00 22.7 2 Nordeste 8 Nordeste 0 -- -- 48
2019-09-03 05:00:00 22.9 5 Nordeste 7 Nordeste 0 -- -- 47
2019-09-03 04:00:00 23.8 0 Calma 6 Sur 0 -- -- 44
2019-09-03 03:00:00 24.8 2 Sur 13 Sur 0 -- -- 43
2019-09-03 02:00:00 25.3 3 Nordeste 13 Norte 0 -- -- 42
2019-09-03 01:00:00 26.4 3 Nordeste 7 Nordeste 0 -- -- 40
2019-09-03 00:00:00 26.6 4 Nordeste 7 Nordeste 0 -- -- 39
2019-09-02 23:00:00 27.1 0 Calma 8 Este 0 -- -- 38
2019-09-02 22:00:00 28.6 4 Nordeste 11 Norte 0 -- -- 35
2019-09-02 21:00:00 31.3 5 Noroeste 14 Noroeste 0 -- -- 28
2019-09-02 20:00:00 33.8 0 Calma 8 Sudoeste 0 -- -- 25
2019-09-02 19:00:00 33.7 6 Sudoeste 15 Sudoeste 0 -- -- 25
2019-09-02 18:00:00 35.1 9 Oeste 23 Oeste 0 -- -- 25
2019-09-02 17:00:00 35.4 7 Sudoeste 23 Sur 0 -- -- 26
2019-09-02 16:00:00 34.2 6 Sudeste 21 Sudoeste 0 -- -- 26
2019-09-02 15:00:00 34.5 6 Sudoeste 30 Este 0 -- -- 28
2019-09-02 14:00:00 32.2 6 Oeste 17 Noroeste 0 -- -- 32
2019-09-02 13:00:00 31 5 Noroeste 14 Noroeste 0 -- -- 35
2019-09-02 12:00:00 29.8 5 Norte 14 Nordeste 0 -- -- 38
2019-09-02 11:00:00 28 6 Nordeste 16 Nordeste 0 -- -- 41
2019-09-02 10:00:00 24.7 8 Nordeste 17 Nordeste 0 -- -- 50
2019-09-02 09:00:00 22.2 8 Nordeste 15 Nordeste 0 -- -- 53
2019-09-02 08:00:00 20.1 4 Nordeste 12 Norte 0 -- -- 51
2019-09-02 07:00:00 21.1 0 Calma 5 Sur 0 -- -- 50
2019-09-02 06:00:00 22.2 2 Nordeste 6 Nordeste 0 -- -- 46
2019-09-02 05:00:00 22.9 4 Nordeste 12 Norte 0 -- -- 44
2019-09-02 04:00:00 23.4 4 Sudeste 5 Sudeste 0 -- -- 42
2019-09-02 03:00:00 24.1 3 Sur 6 Sudeste 0 -- -- 40
2019-09-02 02:00:00 25.2 0 Calma 10 Oeste 0 -- -- 36
2019-09-02 01:00:00 26.8 9 Oeste 16 Oeste 0 -- -- 35
2019-09-02 00:00:00 27.2 8 Oeste 17 Oeste 0 -- -- 35
2019-09-01 23:00:00 28.8 0 Calma 6 Norte 0 -- -- 32
2019-09-01 22:00:00 29.9 3 Norte 11 Noroeste 0 -- -- 30
2019-09-01 21:00:00 30.7 6 Sudoeste 21 Oeste 0 -- -- 27
2019-09-01 20:00:00 32 11 Oeste 24 Oeste 0 -- -- 26
2019-09-01 19:00:00 33.2 10 Sudoeste 25 Sudoeste 0 -- -- 25
2019-09-01 18:00:00 35.7 7 Sur 27 Sudoeste 0 -- -- 24
2019-09-01 17:00:00 35.4 12 Sudoeste 27 Sur 0 -- -- 25
2019-09-01 16:00:00 36 9 Sudoeste 32 Sudoeste 0 -- -- 26
2019-09-01 15:00:00 34.7 3 Sudoeste 23 Sudoeste 0 -- -- 27
2019-09-01 14:00:00 34 9 Sudoeste 21 Sudoeste 0 -- -- 28
2019-09-01 13:00:00 32.8 6 Sudoeste 16 Sudoeste 0 -- -- 29
2019-09-01 12:00:00 31.2 6 Sudoeste 18 Sur 0 -- -- 32
2019-09-01 11:00:00 28.7 4 Sur 13 Sur 0 -- -- 38
2019-09-01 10:00:00 25 4 Sur 11 Sur 0 -- -- 43
2019-09-01 09:00:00 23.1 2 Sur 5 Sudeste 0 -- -- 48
2019-09-01 08:00:00 20.8 0 Calma 4 Sur 0 -- -- 50
2019-09-01 07:00:00 21 2 Sudeste 5 Sudoeste 0 -- -- 48
2019-09-01 06:00:00 21.1 2 Sudoeste 5 Sur 0 -- -- 47
2019-09-01 05:00:00 22.6 0 Calma 5 Sudoeste 0 -- -- 43
2019-09-01 04:00:00 23 3 Sur 7 Sur 0 -- -- 42
2019-09-01 03:00:00 23.6 3 Sur 6 Oeste 0 -- -- 41
2019-09-01 02:00:00 24.7 2 Sudoeste 5 Oeste 0 -- -- 38
2019-09-01 01:00:00 25.5 3 Oeste 19 Sudoeste 0 -- -- 36
2019-09-01 00:00:00 26.7 13 Sudoeste 22 Sudoeste 0 -- -- 35
2019-08-31 23:00:00 27.9 10 Sudoeste 28 Sudoeste 0 -- -- 33
2019-08-31 22:00:00 30.2 3 Sur 10 Sur 0 -- -- 30
2019-08-31 21:00:00 31.8 3 Sur 15 Sudoeste 0 -- -- 27
2019-08-31 20:00:00 35 4 Sur 13 Sudoeste 0 -- -- 25
2019-08-31 19:00:00 34.4 4 Sudoeste 23 Oeste 0 -- -- 26
2019-08-31 18:00:00 35.8 6 Sudoeste 21 Sudoeste 0 -- -- 25
2019-08-31 17:00:00 35.7 7 Oeste 22 Sudoeste 0 -- -- 26
2019-08-31 16:00:00 35.3 9 Sudoeste 22 Oeste 0 -- -- 26
2019-08-31 15:00:00 33.7 7 Oeste 19 Oeste 0 -- -- 28
2019-08-31 14:00:00 32.7 6 Sudeste 19 Sur 0 -- -- 29
2019-08-31 13:00:00 31.6 4 Sur 14 Sur 0 -- -- 31
2019-08-31 12:00:00 30.6 4 Sudeste 14 Este 0 -- -- 32
2019-08-31 11:00:00 28.9 8 Sudeste 15 Sudeste 0 -- -- 35
2019-08-31 10:00:00 27.3 6 Este 13 Este 0 -- -- 39
2019-08-31 09:00:00 23.7 4 Este 8 Nordeste 0 -- -- 47
2019-08-31 08:00:00 21.1 0 Calma 8 Nordeste 0 -- -- 48
2019-08-31 07:00:00 22.5 3 Norte 13 Nordeste 0 -- -- 43
2019-08-31 06:00:00 23.2 10 Nordeste 14 Nordeste 0 -- -- 41
2019-08-31 05:00:00 24.9 8 Este 15 Nordeste 0 -- -- 37
2019-08-31 04:00:00 25.7 10 Este 18 Sudeste 0 -- -- 35
2019-08-31 03:00:00 26.7 9 Sudeste 31 Sudeste 0 -- -- 33
2019-08-31 02:00:00 26.6 15 Sudeste 39 Este 0 -- -- 34
2019-08-31 01:00:00 27.3 20 Este 38 Este 0 -- -- 33
2019-08-31 00:00:00 28.6 13 Este 28 Este 0 -- -- 31
2019-08-30 23:00:00 27.5 3 Sudeste 8 Sudoeste 0 -- -- 31
2019-08-30 22:00:00 29.5 0 Calma 8 Este 0 -- -- 28
2019-08-30 21:00:00 31.8 6 Sudeste 13 Sudeste 0 -- -- 26
2019-08-30 20:00:00 34.8 4 Sur 14 Sur 0 -- -- 23
2019-08-30 19:00:00 35.6 4 Sur 18 Sur 0 -- -- 24
2019-08-30 18:00:00 34.3 10 Sudeste 23 Sudeste 0 -- -- 25
2019-08-30 17:00:00 34.5 9 Sudeste 23 Este 0 -- -- 25
2019-08-30 16:00:00 34.3 8 Sudeste 20 Sudeste 0 -- -- 25
2019-08-30 15:00:00 34.1 8 Sur 23 Sudeste 0 -- -- 26
2019-08-30 14:00:00 34.1 6 Sudoeste 19 Sur 0 -- -- 26
2019-08-30 13:00:00 32.1 8 Sur 18 Sur 0 -- -- 29
2019-08-30 12:00:00 30.8 5 Sur 14 Sur 0 -- -- 32
2019-08-30 11:00:00 27.9 5 Sur 13 Sur 0 -- -- 35
2019-08-30 10:00:00 25.8 0 Calma 5 Este 0 -- -- 39
2019-08-30 09:00:00 22.7 0 Calma 5 Noroeste 0 -- -- 49
2019-08-30 08:00:00 20.4 4 Sudeste 5 Sudeste 0 -- -- 51
2019-08-30 07:00:00 20.9 3 Sudeste 4 Sudeste 0 -- -- 50
2019-08-30 06:00:00 21.9 3 Sudeste 6 Sur 0 -- -- 43
2019-08-30 05:00:00 22.2 3 Sudeste 6 Sur 0 -- -- 43
2019-08-30 04:00:00 22.9 3 Sur 6 Sur 0 -- -- 42
2019-08-30 03:00:00 23.9 3 Sur 8 Sur 0 -- -- 36
2019-08-30 02:00:00 25 4 Sur 8 Sudoeste 0 -- -- 34
2019-08-30 01:00:00 25.5 3 Sudoeste 9 Oeste 0 -- -- 33
2019-08-30 00:00:00 26.8 2 Sudoeste 13 Oeste 0 -- -- 33
2019-08-29 23:00:00 26.9 0 Calma 6 Sudoeste 0 -- -- 35
2019-08-29 22:00:00 28.2 3 Sudeste 5 Sudeste 0 -- -- 32
2019-08-29 21:00:00 31.4 0 Calma 10 Sudeste 0 -- -- 26
2019-08-29 20:00:00 33.6 5 Sudeste 18 Sur 0 -- -- 23
2019-08-29 19:00:00 34.3 8 Sur 22 Sudeste 0 -- -- 24
2019-08-29 18:00:00 34.1 8 Sudeste 22 Sudeste 0 -- -- 24
2019-08-29 17:00:00 34.1 7 Sudeste 18 Sudeste 0 -- -- 25
2019-08-29 16:00:00 33.7 6 Sudeste 26 Sudeste 0 -- -- 26
2019-08-29 15:00:00 33.8 7 Sudeste 18 Sudeste 0 -- -- 26
2019-08-29 14:00:00 32.3 8 Sudeste 19 Sur 0 -- -- 27
2019-08-29 13:00:00 31.3 5 Sudeste 14 Sudeste 0 -- -- 28
2019-08-29 12:00:00 30.3 4 Sur 14 Sudeste 0 -- -- 32
2019-08-29 11:00:00 28.8 3 Sudeste 8 Este 0 -- -- 35
2019-08-29 10:00:00 25.4 2 Oeste 5 Sudoeste 0 -- -- 46
2019-08-29 09:00:00 22.9 0 Calma 3 Sudeste 0 -- -- 53
2019-08-29 08:00:00 20.4 3 Este 7 Nordeste 0 -- -- 54
2019-08-29 07:00:00 20 5 Nordeste 8 Este 0 -- -- 55
2019-08-29 06:00:00 20.4 0 Calma 5 Sur 0 -- -- 51
2019-08-29 05:00:00 21.1 4 Sudeste 6 Sur 0 -- -- 47
2019-08-29 04:00:00 21.5 4 Sur 7 Sur 0 -- -- 46
2019-08-29 03:00:00 22.9 4 Sur 6 Oeste 0 -- -- 44
2019-08-29 02:00:00 23.4 4 Oeste 8 Noroeste 0 -- -- 42
2019-08-29 01:00:00 24.6 2 Este 6 Sudoeste 0 -- -- 36
2019-08-29 00:00:00 24.7 2 Sur 11 Oeste 0 -- -- 36
2019-08-28 23:00:00 25.9 3 Sudeste 11 Sudeste 0 -- -- 32
2019-08-28 22:00:00 27.1 5 Sudeste 12 Sudeste 0 -- -- 30
2019-08-28 21:00:00 29.4 5 Sudeste 11 Sudeste 0 -- -- 27
2019-08-28 20:00:00 31.8 4 Sudeste 11 Este 0 -- -- 26
2019-08-28 19:00:00 32.3 5 Sudeste 14 Sur 0 -- -- 26
2019-08-28 18:00:00 32.7 4 Sur 32 Sudeste 0 -- -- 26
2019-08-28 17:00:00 31.8 4 Norte 19 Sudoeste 0 -- -- 27
2019-08-28 16:00:00 32 5 Sudoeste 19 Sudoeste 0 -- -- 27
2019-08-28 15:00:00 30.6 10 Sudeste 23 Sudeste 0 -- -- 28
2019-08-28 14:00:00 31.1 5 Sudoeste 17 Sudoeste 0 -- -- 30
2019-08-28 13:00:00 29.8 0 Calma 12 Sudoeste 0 -- -- 31
2019-08-28 12:00:00 28.3 6 Sudoeste 13 Sudeste 0 -- -- 35
2019-08-28 11:00:00 25.7 5 Sur 14 Sur 0 -- -- 43
2019-08-28 10:00:00 23.9 5 Sur 12 Sur 0 -- -- 52
2019-08-28 09:00:00 21 4 Sudeste 6 Sudeste 0 -- -- 67
2019-08-28 08:00:00 18.4 3 Sudeste 3 Sudeste 0 -- -- 77
2019-08-28 07:00:00 18.7 0 Calma 4 Sudeste 0 -- -- 72
2019-08-28 06:00:00 19.2 0 Calma 4 Sur 0 -- -- 66
2019-08-28 05:00:00 19.9 2 Sur 8 Sur 0 -- -- 60
2019-08-28 04:00:00 20.6 4 Sur 6 Sudeste 0 -- -- 55
2019-08-28 03:00:00 21.2 3 Sur 21 Sudoeste 0 -- -- 51
2019-08-28 02:00:00 21 2 Sudeste 5 Sudeste 0 -- -- 56
2019-08-28 01:00:00 21.8 2 Sudeste 4 Sudeste 0 -- -- 51
2019-08-28 00:00:00 22.9 0 Calma 4 Sudeste 0 -- -- 48
2019-08-27 23:00:00 23.7 3 Sur 5 Sudoeste 0 -- -- 43
2019-08-27 22:00:00 24.8 0 Calma 6 Oeste 0 -- -- 37
2019-08-27 21:00:00 26.9 4 Oeste 10 Oeste 0 -- -- 32
2019-08-27 20:00:00 29.5 3 Sur 15 Oeste 0 -- -- 28
2019-08-27 19:00:00 29.6 10 Oeste 20 Noroeste 0 -- -- 30
2019-08-27 18:00:00 29.1 4 Noroeste 19 Oeste 0 -- -- 30
2019-08-27 17:00:00 29.2 10 Oeste 20 Oeste 0 -- -- 31
2019-08-27 16:00:00 28.7 5 Oeste 20 Oeste 0 -- -- 34
2019-08-27 15:00:00 27.3 7 Oeste 18 Oeste 0 -- -- 38
2019-08-27 14:00:00 26.6 4 Oeste 14 Oeste 0 -- -- 39
2019-08-27 13:00:00 25.2 2 Sur 12 Sur -- -- -- 43
2019-08-27 12:00:00 23.7 0 Calma 9 Sudoeste -- -- -- 49
2019-08-27 11:00:00 22.9 3 Sudoeste 9 Sur 0 -- -- 50
2019-08-27 10:00:00 21.1 4 Sudeste 8 Sudeste 0 -- -- 55
2019-08-27 09:00:00 19 0 Calma 6 Nordeste 0 -- -- 68
2019-08-27 08:00:00 16.7 0 Calma 5 Norte 0 -- -- 77
2019-08-27 07:00:00 17.2 0 Calma 4 Norte 0 -- -- 75
2019-08-27 06:00:00 17.6 0 Calma 11 Sudeste 0 -- -- 69
2019-08-27 05:00:00 18.3 6 Sudeste 16 Sudeste 0 -- -- 66
2019-08-27 04:00:00 18.4 7 Sudeste 14 Sudeste 0 -- -- 66
2019-08-27 03:00:00 18.4 6 Sudeste 11 Sudeste 0 -- -- 68
2019-08-27 02:00:00 18.4 7 Sudeste 15 Sudeste 0 -- -- 70
2019-08-27 01:00:00 18.5 10 Sudeste 21 Sudeste 0 -- -- 72
2019-08-27 00:00:00 18.3 7 Este 14 Este 0 -- -- 74
2019-08-26 23:00:00 17.7 9 Este 12 Este 0 -- -- 83
2019-08-26 22:00:00 17.7 0 Calma -- -- -- -- -- 82
2019-08-26 21:00:00 17.4 4 Sudoeste 28 Sudeste 1.5 -- -- 81
2019-08-26 20:00:00 15.7 19 Este -- -- -- -- -- 78
2019-08-26 19:00:00 23 0 Calma 42 Sudoeste 5.1 -- -- 55
2019-08-26 18:00:00 28 4 Nordeste 20 Sudoeste 0 -- -- 39
2019-08-26 17:00:00 28.6 12 Oeste 23 Sudeste 0 -- -- 38
2019-08-26 16:00:00 29.5 5 Oeste 30 Oeste 0 -- -- 38
2019-08-26 15:00:00 28.8 17 Oeste 29 Oeste 0 -- -- 41
2019-08-26 14:00:00 27 5 Sudoeste 21 Sudoeste 0 -- -- 46
2019-08-26 13:00:00 24.4 9 Noroeste 16 Norte 0 -- -- 52
2019-08-26 12:00:00 23 6 Noroeste 35 Oeste 0 -- -- 55
2019-08-26 11:00:00 21.1 25 Oeste 46 Oeste 0 -- -- 62
2019-08-26 10:00:00 22.9 5 Sudoeste 18 Sudoeste 0 -- -- 56
2019-08-26 09:00:00 21.3 5 Sudoeste 12 Sudoeste 0 -- -- 54
2019-08-26 08:00:00 20.6 5 Sudeste 12 Sudeste 0 -- -- 57
2019-08-26 07:00:00 21 7 Sudeste 12 Sudeste 0 -- -- 57
2019-08-26 06:00:00 20.7 8 Este 12 Este 0 -- -- 59
2019-08-26 05:00:00 21.3 2 Nordeste 18 Sur 0 -- -- 59
2019-08-26 04:00:00 21.9 6 Sur 19 Sur 0 -- -- 59
2019-08-26 03:00:00 22.5 2 Nordeste 12 Norte 0 -- -- 57
2019-08-26 02:00:00 22.9 5 Norte 22 Nordeste 0 -- -- 54
2019-08-26 01:00:00 23.5 6 Este 20 Oeste 0 -- -- 46
2019-08-26 00:00:00 25.2 12 Oeste 29 Oeste 0 -- -- 39
2019-08-25 23:00:00 26.4 6 Nordeste 28 Oeste 0 -- -- 39
2019-08-25 22:00:00 28.4 21 Oeste 33 Sudoeste 0 -- -- 34
2019-08-25 21:00:00 30.5 4 Sur 14 Sur 0 -- -- 31
2019-08-25 20:00:00 31.6 5 Sur 26 Sudeste 0 -- -- 29
2019-08-25 19:00:00 33.3 7 Sur 27 Sudeste 0 -- -- 29
2019-08-25 18:00:00 33.6 9 Sur 23 Sur 0 -- -- 30
2019-08-25 17:00:00 32.1 10 Sur 27 Sudeste 0 -- -- 31
2019-08-25 16:00:00 32.4 10 Sudeste 32 Sudeste 0 -- -- 32
2019-08-25 15:00:00 31.6 9 Sudeste 23 Sudeste 0 -- -- 33
2019-08-25 14:00:00 30.4 9 Sudeste 22 Sudeste 0 -- -- 34
2019-08-25 13:00:00 29.4 8 Sudeste 23 Sudeste 0 -- -- 36
2019-08-25 12:00:00 27.9 9 Sudeste 22 Sudeste 0 -- -- 38
2019-08-25 11:00:00 26.4 8 Sudeste 23 Sudeste 0 -- -- 39
2019-08-25 10:00:00 24.8 12 Sudeste 25 Sudeste 0 -- -- 41
2019-08-25 09:00:00 23.4 14 Sudeste 23 Sudeste 0 -- -- 43
2019-08-25 08:00:00 22.9 12 Sudeste 30 Sudeste 0 -- -- 42
2019-08-25 07:00:00 23.3 0 Calma 26 Sudeste 0 -- -- 38
2019-08-25 06:00:00 24 12 Sudeste 21 Sudeste 0 -- -- 36
2019-08-25 05:00:00 23.6 5 Nordeste 9 Norte 0 -- -- 36
2019-08-25 04:00:00 24.8 4 Sudoeste 13 Sudeste 0 -- -- 33
2019-08-25 03:00:00 25.8 5 Sudeste 32 Sudeste 0 -- -- 30
2019-08-25 02:00:00 25.4 0 Calma 7 Oeste 0 -- -- 30
2019-08-25 01:00:00 26.3 0 Calma 15 Sudoeste 0 -- -- 27
2019-08-25 00:00:00 27.5 2 Sudeste 10 Sudeste 0 -- -- 26
2019-08-24 23:00:00 28.8 4 Sudeste 8 Sudeste 0 -- -- 25
2019-08-24 22:00:00 30 2 Sur 11 Sur 0 -- -- 24
2019-08-24 21:00:00 32.8 4 Sur 19 Sudeste 0 -- -- 23
2019-08-24 20:00:00 35.6 5 Sur 15 Sudeste 0 -- -- 22
2019-08-24 19:00:00 36.5 4 Sur 18 Sudeste 0 -- -- 22
2019-08-24 18:00:00 35.8 7 Sur 21 Sur 0 -- -- 22
2019-08-24 17:00:00 34.9 6 Oeste 26 Sur 0 -- -- 22
2019-08-24 16:00:00 35.7 5 Oeste 25 Sudeste 0 -- -- 23
2019-08-24 15:00:00 35.4 7 Sur 27 Sudeste 0 -- -- 23
2019-08-24 14:00:00 34.3 3 Sur 21 Este 0 -- -- 23
2019-08-24 13:00:00 33.2 4 Sur 22 Sudeste 0 -- -- 25
2019-08-24 12:00:00 32 5 Sudoeste 15 Sudoeste 0 -- -- 26
2019-08-24 11:00:00 30.7 3 Sur 8 Sur 0 -- -- 26
2019-08-24 10:00:00 29.3 2 Este 7 Este 0 -- -- 27
2019-08-24 09:00:00 25 0 Calma 5 Sur 0 -- -- 30
2019-08-24 08:00:00 21.5 0 Calma 7 Noroeste 0 -- -- 30
2019-08-24 07:00:00 22.8 0 Calma 8 Sudoeste 0 -- -- 29
2019-08-24 06:00:00 23.7 2 Nordeste 7 Nordeste 0 -- -- 27
2019-08-24 05:00:00 25.9 6 Este 18 Sudeste 0 -- -- 26
2019-08-24 04:00:00 27.1 12 Sudeste 22 Sudeste 0 -- -- 25
2019-08-24 03:00:00 27.3 9 Sudeste 17 Sudeste 0 -- -- 26
2019-08-24 02:00:00 27.9 8 Este 18 Este 0 -- -- 26
2019-08-24 01:00:00 27.7 6 Este 14 Este 0 -- -- 27
2019-08-24 00:00:00 26.3 3 Nordeste 6 Nordeste 0 -- -- 26
2019-08-23 23:00:00 27.5 5 Nordeste 13 Norte 0 -- -- 26
2019-08-23 22:00:00 30.9 6 Norte 14 Norte 0 -- -- 24
2019-08-23 21:00:00 32.8 6 Noroeste 13 Noroeste 0 -- -- 24
2019-08-23 20:00:00 34.8 6 Noroeste 20 Norte 0 -- -- 23
2019-08-23 19:00:00 35.4 7 Oeste 21 Noroeste 0 -- -- 24
2019-08-23 18:00:00 35.6 4 Noroeste 21 Noroeste 0 -- -- 24
2019-08-23 17:00:00 34.7 6 Norte 22 Noroeste 0 -- -- 25
2019-08-23 16:00:00 34.6 5 Oeste 21 Noroeste 0 -- -- 26
2019-08-23 15:00:00 34 2 Norte 19 Oeste 0 -- -- 27
2019-08-23 14:00:00 33.3 8 Sudoeste 15 Sudoeste 0 -- -- 29
2019-08-23 13:00:00 31.7 3 Norte 13 Oeste 0 -- -- 32
2019-08-23 12:00:00 31.2 5 Sudoeste 12 Sur 0 -- -- 34
2019-08-23 11:00:00 29.5 3 Sur 15 Sudeste 0 -- -- 35
2019-08-23 10:00:00 28.2 3 Nordeste 15 Este 0 -- -- 35
2019-08-23 09:00:00 25.1 5 Este 9 Este 0 -- -- 37
2019-08-23 08:00:00 22.4 0 Calma 10 Nordeste 0 -- -- 38
2019-08-23 07:00:00 23.4 6 Nordeste 9 Nordeste 0 -- -- 35
2019-08-23 06:00:00 25.6 5 Este 16 Este 0 -- -- 33
2019-08-23 05:00:00 26.1 4 Norte 22 Sudeste 0 -- -- 31
2019-08-23 04:00:00 25.8 6 Sudeste 14 Sudeste 0 -- -- 29
2019-08-23 03:00:00 25.5 5 Este 10 Sudeste 0 -- -- 29
2019-08-23 02:00:00 26.3 4 Este 15 Este 0 -- -- 29
2019-08-23 01:00:00 26.9 6 Nordeste 14 Nordeste 0 -- -- 28
2019-08-23 00:00:00 27.1 6 Nordeste 14 Nordeste 0 -- -- 28
2019-08-22 23:00:00 27.7 6 Nordeste 12 Nordeste 0 -- -- 29
2019-08-22 22:00:00 29.4 3 Nordeste 11 Nordeste 0 -- -- 27
2019-08-22 21:00:00 32.2 5 Nordeste 14 Nordeste 0 -- -- 26
2019-08-22 20:00:00 33.5 5 Norte 19 Norte 0 -- -- 26
2019-08-22 19:00:00 35 4 Norte 21 Nordeste 0 -- -- 26
2019-08-22 18:00:00 33.6 8 Nordeste 22 Sudoeste 0 -- -- 27
2019-08-22 17:00:00 33.9 5 Noroeste 22 Nordeste 0 -- -- 27
2019-08-22 16:00:00 33.9 4 Este 23 Este 0 -- -- 26
2019-08-22 15:00:00 33.3 7 Nordeste 24 Este 0 -- -- 27
2019-08-22 14:00:00 32.6 6 Este 20 Este 0 -- -- 28
2019-08-22 13:00:00 31.5 8 Este 21 Este 0 -- -- 30
2019-08-22 12:00:00 30.7 7 Nordeste 19 Nordeste 0 -- -- 35
2019-08-22 11:00:00 29.3 6 Nordeste 21 Este 0 -- -- 41
2019-08-22 10:00:00 26.7 7 Nordeste 17 Nordeste 0 -- -- 48
2019-08-22 09:00:00 23.2 6 Nordeste 15 Nordeste 0 -- -- 60
2019-08-22 08:00:00 20.2 7 Nordeste 17 Nordeste 0 -- -- 65
2019-08-22 07:00:00 20.6 7 Nordeste 16 Nordeste 0 -- -- 63
2019-08-22 06:00:00 20.9 8 Nordeste 13 Norte 0 -- -- 60
2019-08-22 05:00:00 23 0 Calma 13 Nordeste 0 -- -- 53
2019-08-22 04:00:00 23.8 5 Norte 12 Norte 0 -- -- 47
2019-08-22 03:00:00 25.5 5 Sudeste 14 Sudeste 0 -- -- 43
2019-08-22 02:00:00 25.2 5 Este 10 Este 0 -- -- 38
2019-08-22 01:00:00 25.4 5 Nordeste 11 Nordeste 0 -- -- 36
2019-08-22 00:00:00 26.2 6 Este 13 Este 0 -- -- 37
2019-08-21 23:00:00 25.9 6 Este 10 Este 0 -- -- 33
2019-08-21 22:00:00 27.5 5 Nordeste 9 Nordeste 0 -- -- 32
2019-08-21 21:00:00 30.4 4 Nordeste 13 Nordeste 0 -- -- 30
2019-08-21 20:00:00 31.8 7 Nordeste 19 Nordeste 0 -- -- 30
2019-08-21 19:00:00 32.5 7 Norte 26 Nordeste 0 -- -- 30
2019-08-21 18:00:00 33.6 3 Norte 21 Oeste 0 -- -- 26
2019-08-21 17:00:00 33.7 10 Oeste 21 Sudoeste 0 -- -- 26
2019-08-21 16:00:00 33 8 Noroeste 19 Noroeste 0 -- -- 31
2019-08-21 15:00:00 30.7 3 Noroeste 18 Sudoeste 0 -- -- 33
2019-08-21 14:00:00 31 2 Norte 19 Oeste 0 -- -- 38
2019-08-21 13:00:00 29.7 4 Este 19 Este 0 -- -- 40
2019-08-21 12:00:00 28.2 5 Sudeste 16 Sudeste 0 -- -- 46
2019-08-21 11:00:00 27 5 Nordeste 17 Nordeste 0 -- -- 51
2019-08-21 10:00:00 25.3 10 Nordeste 18 Nordeste 0 -- -- 56
2019-08-21 09:00:00 21.7 7 Nordeste 14 Nordeste 0 -- -- 66
2019-08-21 08:00:00 20.1 10 Nordeste 19 Nordeste 0 -- -- 68
2019-08-21 07:00:00 20.4 9 Nordeste 18 Nordeste 0 -- -- 65
2019-08-21 06:00:00 21.1 6 Nordeste 19 Norte 0 -- -- 62
2019-08-21 05:00:00 22.6 8 Nordeste 21 Nordeste 0 -- -- 58
2019-08-21 04:00:00 23 7 Nordeste 18 Norte 0 -- -- 43
2019-08-21 03:00:00 24.5 11 Nordeste 19 Nordeste 0 -- -- 35
2019-08-21 02:00:00 23.8 4 Norte 10 Norte 0 -- -- 33
2019-08-21 01:00:00 24.6 3 Noroeste 7 Nordeste 0 -- -- 32
2019-08-21 00:00:00 25.9 4 Nordeste 9 Noroeste 0 -- -- 30